Time;durP1;ratioP1;P1;durP2;ratioP2;P2;SDS_P1;SDS_P2;PMS_P1;PMS_P2;Temp;Humidity;BMP_temperature;BMP_pressure;BME280_temperature;BME280_humidity;BME280_pressure;Samples;Min_cycle;Max_cycle;Signal;HPM_P1;HPM_P2
2023/12/22 00:00:02;;;;;;;35.78;22.08;;;;;;;0.46;100.00;99134.28;4991815;28;20535;-68
2023/12/22 00:02:28;;;;;;;43.38;29.25;;;;;;;0.55;100.00;99130.50;5022769;28;20505;-69
2023/12/22 00:04:54;;;;;;;42.63;23.65;;;;;;;0.59;100.00;99138.38;4991744;28;20451;-68
2023/12/22 00:07:20;;;;;;;41.78;25.30;;;;;;;0.62;100.00;99128.41;4991552;28;20465;-68
2023/12/22 00:09:45;;;;;;;43.88;25.48;;;;;;;0.72;100.00;99123.81;4991185;28;20034;-69
2023/12/22 00:12:11;;;;;;;42.78;24.98;;;;;;;0.83;100.00;99106.63;4990905;28;20096;-69
2023/12/22 00:14:37;;;;;;;45.90;25.45;;;;;;;0.80;100.00;99108.19;4991138;28;20026;-69
2023/12/22 00:17:03;;;;;;;45.50;25.75;;;;;;;0.83;100.00;99111.69;4991569;28;20037;-69
2023/12/22 00:19:28;;;;;;;44.25;25.58;;;;;;;0.92;100.00;99117.25;4991761;28;20069;-69
2023/12/22 00:21:54;;;;;;;42.78;24.83;;;;;;;0.94;100.00;99111.44;4990901;28;20062;-69
2023/12/22 00:24:19;;;;;;;45.33;27.52;;;;;;;0.95;100.00;99113.22;4991025;28;20042;-69
2023/12/22 00:26:45;;;;;;;42.58;24.52;;;;;;;0.53;100.00;99030.53;4990502;28;20038;-69
2023/12/22 00:29:11;;;;;;;44.17;26.48;;;;;;;1.06;100.00;99103.63;4991341;28;20490;-69
2023/12/22 00:31:36;;;;;;;46.38;28.02;;;;;;;0.56;100.00;99031.56;4989554;28;20066;-69
2023/12/22 00:34:02;;;;;;;49.67;28.05;;;;;;;0.90;100.00;99089.22;4990941;28;20417;-69
2023/12/22 00:36:27;;;;;;;51.55;30.13;;;;;;;0.94;100.00;99103.84;4990756;28;20030;-69
2023/12/22 00:38:53;;;;;;;49.05;27.98;;;;;;;0.89;100.00;99092.56;4990270;28;20041;-68
2023/12/22 00:41:18;;;;;;;53.15;31.15;;;;;;;0.48;100.00;99023.50;4990107;28;20034;-69
2023/12/22 00:43:44;;;;;;;46.72;26.73;;;;;;;0.83;100.00;99087.16;4989183;28;20606;-70
2023/12/22 00:46:09;;;;;;;50.35;26.98;;;;;;;0.78;100.00;99091.97;4990227;28;20030;-69
2023/12/22 00:48:35;;;;;;;46.70;27.48;;;;;;;0.43;100.00;99024.94;4977646;28;20049;-68
2023/12/22 00:51:00;;;;;;;41.92;24.65;;;;;;;0.81;100.00;99073.50;4990190;28;20448;-69
2023/12/22 00:53:26;;;;;;;44.28;23.98;;;;;;;0.58;100.00;99051.94;4977954;28;20023;-69
2023/12/22 00:55:51;;;;;;;42.13;24.50;;;;;;;0.36;100.00;99052.44;4990775;28;20485;-68
2023/12/22 00:58:17;;;;;;;48.72;25.00;;;;;;;0.11;100.00;99051.09;4990223;28;20018;-69
2023/12/22 01:00:42;;;;;;;43.40;24.90;;;;;;;-0.02;100.00;99044.47;4990548;28;20022;-68
2023/12/22 01:03:08;;;;;;;44.22;25.35;;;;;;;-0.52;100.00;98944.50;4990377;28;20031;-69
2023/12/22 01:05:33;;;;;;;40.15;23.00;;;;;;;-0.07;100.00;99031.53;4990481;28;20066;-68
2023/12/22 01:07:59;;;;;;;40.25;23.58;;;;;;;-0.01;100.00;99036.09;4990474;28;20021;-68
2023/12/22 01:10:24;;;;;;;43.95;26.25;;;;;;;0.13;100.00;99034.31;4990924;28;20030;-68
2023/12/22 01:12:50;;;;;;;42.72;25.08;;;;;;;0.20;100.00;99031.31;4988880;28;20115;-68
2023/12/22 01:15:15;;;;;;;40.70;25.65;;;;;;;0.19;100.00;99018.53;4990542;28;20033;-68
2023/12/22 01:17:41;;;;;;;41.90;26.33;;;;;;;0.21;100.00;99014.41;4989880;28;20040;-68
2023/12/22 01:20:06;;;;;;;44.88;26.10;;;;;;;0.29;100.00;99010.63;4990127;28;20042;-69
2023/12/22 01:22:33;;;;;;;51.95;30.73;;;;;;;0.32;100.00;99000.63;4971748;28;20125;-68
2023/12/22 01:24:59;;;;;;;46.67;29.00;;;;;;;0.45;100.00;99003.06;4990338;28;20015;-68
2023/12/22 01:27:25;;;;;;;51.58;29.15;;;;;;;0.40;100.00;98989.25;4990253;28;20022;-69
2023/12/22 01:29:50;;;;;;;48.35;27.70;;;;;;;0.52;100.00;99006.78;4990546;28;20033;-69
2023/12/22 01:32:16;;;;;;;47.88;27.85;;;;;;;0.54;100.00;99004.34;4989535;28;20465;-68
2023/12/22 01:34:41;;;;;;;48.42;25.98;;;;;;;0.53;100.00;98992.44;4990113;28;20093;-68
2023/12/22 01:37:07;;;;;;;43.53;26.63;;;;;;;0.52;100.00;98989.00;4989952;28;20026;-68
2023/12/22 01:39:32;;;;;;;43.08;26.55;;;;;;;0.20;100.00;98960.25;4989892;28;20034;-68
2023/12/22 01:41:58;;;;;;;43.83;26.65;;;;;;;0.15;100.00;98982.84;4989924;28;20452;-68
2023/12/22 01:44:23;;;;;;;48.70;29.27;;;;;;;0.03;100.00;98977.09;4990535;28;20134;-68
2023/12/22 01:46:50;;;;;;;49.07;29.33;;;;;;;-0.23;100.00;98984.13;4989626;28;20038;-68
2023/12/22 01:49:16;;;;;;;45.63;24.30;;;;;;;-0.59;100.00;98976.22;4990101;28;20046;-68
2023/12/22 01:51:42;;;;;;;44.53;29.07;;;;;;;-1.08;100.00;98923.59;4990172;28;20463;-67
2023/12/22 01:54:09;;;;;;;48.37;34.77;;;;;;;-0.87;100.00;98956.03;4990113;28;20023;-67
2023/12/22 01:56:35;;;;;;;42.10;28.43;;;;;;;-1.02;100.00;98950.97;4990022;28;20087;-68
2023/12/22 01:59:02;;;;;;;35.00;20.13;;;;;;;-1.01;100.00;98962.81;4990307;28;20041;-68
2023/12/22 02:01:28;;;;;;;35.70;20.00;;;;;;;-1.16;100.00;98953.56;4979007;28;20066;-67
2023/12/22 02:03:54;;;;;;;33.13;19.77;;;;;;;-1.10;100.00;98952.16;4993670;28;20030;-67
2023/12/22 02:06:20;;;;;;;32.63;18.57;;;;;;;-1.17;100.00;98950.94;4993541;28;20089;-68
2023/12/22 02:08:49;;;;;;;32.40;19.23;;;;;;;-1.17;100.00;98958.53;4993468;28;20109;-68
2023/12/22 02:11:15;;;;;;;34.38;19.75;;;;;;;-1.26;100.00;98953.75;4974904;28;20042;-68
2023/12/22 02:13:45;;;;;;;36.07;20.20;;;;;;;-1.21;100.00;98961.66;4993327;28;20065;-68
2023/12/22 02:16:29;;;;;;;28.33;17.40;;;;;;;-1.61;100.00;98852.97;4993549;28;20497;-68
2023/12/22 02:18:57;;;;;;;36.77;20.63;;;;;;;-0.83;100.00;98945.28;4993262;28;20026;-68
2023/12/22 02:21:22;;;;;;;33.43;20.00;;;;;;;-0.67;100.00;98942.81;4993056;28;20480;-68
2023/12/22 02:23:48;;;;;;;33.83;20.87;;;;;;;-0.54;100.00;98935.91;4992908;28;20022;-68
2023/12/22 02:26:33;;;;;;;38.50;21.83;;;;;;;-0.47;100.00;98947.25;4993208;28;20058;-68
2023/12/22 02:29:01;;;;;;;39.47;21.33;;;;;;;-0.43;100.00;98936.53;4993083;28;20085;-68
2023/12/22 02:31:44;;;;;;;39.40;21.90;;;;;;;-0.78;100.00;98860.25;4993282;28;20033;-68
2023/12/22 02:34:13;;;;;;;35.90;20.87;;;;;;;-0.43;100.00;98917.09;4992932;28;20493;-68
2023/12/22 02:36:39;;;;;;;33.55;21.13;;;;;;;-1.16;100.00;98791.47;4992918;28;20030;-68
2023/12/22 02:39:07;;;;;;;32.50;21.47;;;;;;;-0.34;100.00;98943.00;4991853;28;20056;-68
2023/12/22 02:41:33;;;;;;;39.03;23.67;;;;;;;-1.55;100.00;98730.22;4992894;28;20030;-68
2023/12/22 02:43:59;;;;;;;39.10;21.87;;;;;;;-0.38;100.00;98940.19;4993096;28;20405;-68
2023/12/22 02:46:24;;;;;;;32.07;20.27;;;;;;;-0.67;100.00;98904.81;4992803;28;20042;-68
2023/12/22 02:48:50;;;;;;;32.83;19.10;;;;;;;-0.41;100.00;98924.78;4992858;28;20113;-68
2023/12/22 02:51:15;;;;;;;40.30;20.67;;;;;;;-0.41;100.00;98914.66;4992681;28;20034;-67
2023/12/22 02:53:41;;;;;;;34.60;20.70;;;;;;;-0.79;100.00;98839.91;4992791;28;20038;-67
2023/12/22 02:56:06;;;;;;;34.85;22.63;;;;;;;-0.28;100.00;98919.59;4992717;28;20033;-68
2023/12/22 02:58:32;;;;;;;37.15;21.88;;;;;;;-0.26;100.00;98927.28;4992762;28;20424;-68
2023/12/22 03:00:57;;;;;;;37.43;22.53;;;;;;;-0.17;100.00;98918.53;4992905;28;20038;-68
2023/12/22 03:03:23;;;;;;;34.60;20.77;;;;;;;-0.31;100.00;98861.13;4990292;28;20092;-68
2023/12/22 03:05:48;;;;;;;42.95;21.73;;;;;;;-0.16;100.00;98899.13;4992505;28;20480;-68
2023/12/22 03:08:14;;;;;;;30.92;18.77;;;;;;;-0.46;100.00;98895.78;4992786;28;20031;-68
2023/12/22 03:10:39;;;;;;;45.35;20.67;;;;;;;-0.55;100.00;98886.91;4992159;28;20053;-68
2023/12/22 03:13:05;;;;;;;37.33;20.77;;;;;;;-0.98;100.00;98813.56;4991757;28;20026;-68
2023/12/22 03:15:30;;;;;;;34.13;20.57;;;;;;;-0.28;100.00;98899.31;4992090;28;20038;-68
2023/12/22 03:17:56;;;;;;;34.77;20.57;;;;;;;-0.19;100.00;98906.56;4992339;28;20041;-68
2023/12/22 03:20:21;;;;;;;36.80;20.40;;;;;;;-0.26;100.00;98872.41;4991957;28;20061;-68
2023/12/22 03:22:46;;;;;;;41.27;20.07;;;;;;;-0.16;100.00;98881.38;4992326;28;20034;-68
2023/12/22 03:25:12;;;;;;;33.03;19.23;;;;;;;-0.07;100.00;98897.06;4992102;28;20027;-68
2023/12/22 03:27:38;;;;;;;35.95;20.63;;;;;;;-0.02;100.00;98897.31;4991233;28;20173;-68
2023/12/22 03:30:04;;;;;;;38.75;19.70;;;;;;;-0.59;100.00;98813.13;4992014;28;21408;-68
2023/12/22 03:32:30;;;;;;;36.40;20.25;;;;;;;-0.16;100.00;98883.91;4992268;28;20041;-68
2023/12/22 03:34:55;;;;;;;34.13;19.13;;;;;;;-0.82;100.00;98798.41;4991741;28;20026;-68
2023/12/22 03:37:20;;;;;;;34.23;19.77;;;;;;;-0.30;100.00;98885.69;4992107;28;20058;-68
2023/12/22 03:39:46;;;;;;;36.73;20.90;;;;;;;-0.39;100.00;98883.50;4991933;28;20302;-68
2023/12/22 03:42:11;;;;;;;37.73;21.80;;;;;;;-0.57;100.00;98893.53;4991995;28;20030;-67
2023/12/22 03:44:37;;;;;;;37.63;19.37;;;;;;;-0.74;100.00;98899.31;4991855;28;20026;-68
2023/12/22 03:47:03;;;;;;;32.77;17.63;;;;;;;-0.86;100.00;98895.31;4991261;28;20038;-68
2023/12/22 03:49:28;;;;;;;29.40;16.97;;;;;;;-0.85;100.00;98889.47;4991665;28;20046;-68
2023/12/22 03:51:53;;;;;;;30.33;17.70;;;;;;;-1.42;100.00;98801.78;4991745;28;20385;-67
2023/12/22 03:54:19;;;;;;;31.67;17.20;;;;;;;-0.90;100.00;98890.84;4991539;28;20031;-68
2023/12/22 03:56:44;;;;;;;27.33;15.90;;;;;;;-0.91;100.00;98888.22;4991549;28;20030;-68
2023/12/22 03:59:10;;;;;;;26.63;16.60;;;;;;;-0.89;100.00;98882.44;4991460;28;20038;-68
2023/12/22 04:01:35;;;;;;;27.80;16.00;;;;;;;-0.95;100.00;98860.97;4991689;28;20030;-68
2023/12/22 04:04:01;;;;;;;28.10;16.97;;;;;;;-0.89;100.00;98872.31;4991213;28;20365;-68
2023/12/22 04:06:26;;;;;;;28.30;16.53;;;;;;;-0.75;100.00;98890.81;4991025;28;20105;-68
2023/12/22 04:08:52;;;;;;;28.00;16.97;;;;;;;-0.93;100.00;98841.69;4991301;28;20030;-68
2023/12/22 04:11:18;;;;;;;26.20;15.60;;;;;;;-0.49;100.00;98883.81;4991423;28;20033;-68
2023/12/22 04:13:44;;;;;;;28.47;15.73;;;;;;;-0.41;100.00;98876.63;4991335;28;20452;-68
2023/12/22 04:16:09;;;;;;;29.70;17.00;;;;;;;-0.40;100.00;98864.03;4991448;28;20034;-68
2023/12/22 04:18:34;;;;;;;32.63;17.92;;;;;;;-0.31;100.00;98871.28;4990882;28;20034;-68
2023/12/22 04:21:00;;;;;;;30.52;17.33;;;;;;;-0.50;100.00;98842.38;4991023;28;20030;-68
2023/12/22 04:23:25;;;;;;;28.48;16.33;;;;;;;-0.29;100.00;98872.22;4990230;28;20042;-68
2023/12/22 04:25:51;;;;;;;28.38;16.38;;;;;;;-0.26;100.00;98867.31;4990574;28;20034;-68
2023/12/22 04:28:17;;;;;;;30.27;16.00;;;;;;;-0.17;100.00;98866.94;4990824;28;20031;-68
2023/12/22 04:30:42;;;;;;;28.55;16.48;;;;;;;-0.17;100.00;98867.81;4991012;28;20473;-68
2023/12/22 04:33:08;;;;;;;31.93;18.23;;;;;;;-0.07;100.00;98855.63;4991249;28;20036;-68
2023/12/22 04:35:33;;;;;;;33.47;17.63;;;;;;;-0.05;100.00;98861.63;4990532;28;20121;-68
2023/12/22 04:37:59;;;;;;;32.38;18.10;;;;;;;-0.08;100.00;98872.50;4991009;28;20027;-68
2023/12/22 04:40:25;;;;;;;33.05;18.60;;;;;;;-0.17;100.00;98885.56;4990679;28;20014;-67
2023/12/22 04:42:50;;;;;;;29.63;16.45;;;;;;;-0.30;100.00;98879.75;4990879;28;20416;-67
2023/12/22 04:45:17;;;;;;;27.03;15.77;;;;;;;-0.51;100.00;98886.25;4990014;28;20027;-67
2023/12/22 04:47:42;;;;;;;28.47;15.90;;;;;;;-1.13;100.00;98790.78;4990428;28;20092;-68
2023/12/22 04:50:08;;;;;;;23.33;15.13;;;;;;;-0.64;100.00;98872.84;4990247;28;20406;-68
2023/12/22 04:52:34;;;;;;;28.47;15.53;;;;;;;-0.63;100.00;98865.31;4990327;28;20631;-68
2023/12/22 04:54:59;;;;;;;27.23;14.60;;;;;;;-0.84;100.00;98827.84;4990590;28;20026;-67
2023/12/22 04:57:25;;;;;;;26.53;13.90;;;;;;;-0.57;100.00;98864.78;4990886;28;20113;-67
2023/12/22 04:59:50;;;;;;;26.10;13.90;;;;;;;-0.52;100.00;98861.69;4990608;28;20065;-68
2023/12/22 05:02:15;;;;;;;25.70;16.20;;;;;;;-0.43;100.00;98865.53;4990416;28;20464;-68
2023/12/22 05:04:42;;;;;;;27.20;15.17;;;;;;;-0.41;100.00;98867.38;4990150;28;20069;-67
2023/12/22 05:07:07;;;;;;;30.47;19.03;;;;;;;-0.69;100.00;98812.59;4990473;28;20049;-67
2023/12/22 05:09:36;;;;;;;30.08;18.08;;;;;;;-0.23;100.00;98872.53;4990398;28;20393;-68
2023/12/22 05:12:01;;;;;;;30.30;17.00;;;;;;;-0.25;100.00;98870.72;4989610;28;20512;-67
2023/12/22 05:14:27;;;;;;;29.85;16.58;;;;;;;-0.33;100.00;98876.25;4990675;28;20116;-67
2023/12/22 05:16:55;;;;;;;34.53;15.57;;;;;;;-0.36;100.00;98892.97;4990234;28;20411;-68
2023/12/22 05:19:21;;;;;;;26.55;15.07;;;;;;;-0.36;100.00;98876.09;4990441;28;20464;-68
2023/12/22 05:21:46;;;;;;;26.05;16.17;;;;;;;-0.27;100.00;98878.25;4990437;28;20120;-68
2023/12/22 05:24:12;;;;;;;25.75;15.27;;;;;;;-0.18;100.00;98871.13;4990157;28;20113;-68
2023/12/22 05:26:37;;;;;;;27.73;15.93;;;;;;;-0.45;100.00;98834.16;4990488;28;20649;-68
2023/12/22 05:29:03;;;;;;;31.17;17.17;;;;;;;-0.18;100.00;98880.41;4988781;28;20389;-68
2023/12/22 05:31:30;;;;;;;28.88;17.42;;;;;;;-0.11;100.00;98881.59;4990044;28;20022;-67
2023/12/22 05:33:56;;;;;;;34.58;19.33;;;;;;;-0.02;100.00;98884.66;4990891;28;20030;-68
2023/12/22 05:36:22;;;;;;;33.75;18.10;;;;;;;0.01;100.00;98886.47;4992661;28;20531;-68
2023/12/22 05:38:47;;;;;;;29.45;18.05;;;;;;;-0.01;100.00;98886.41;4993273;28;20038;-68
2023/12/22 05:41:13;;;;;;;28.15;16.45;;;;;;;0.01;100.00;98896.63;4994333;28;20031;-68
2023/12/22 05:43:39;;;;;;;35.53;24.27;;;;;;;-0.63;100.00;98796.03;4995088;28;20504;-68
2023/12/22 05:46:04;;;;;;;36.13;19.15;;;;;;;-0.14;100.00;98899.22;4976161;28;20031;-67
2023/12/22 05:48:30;;;;;;;54.40;27.65;;;;;;;-0.22;100.00;98886.13;4994311;28;20038;-67
2023/12/22 05:50:58;;;;;;;50.42;26.40;;;;;;;-0.28;100.00;98881.56;4994658;28;20061;-68
2023/12/22 05:53:24;;;;;;;55.43;26.90;;;;;;;-0.26;100.00;98890.16;5008641;28;20567;-67
2023/12/22 05:55:49;;;;;;;48.33;25.45;;;;;;;-0.43;100.00;98880.75;4994385;28;20038;-67
2023/12/22 05:58:15;;;;;;;45.75;26.55;;;;;;;-0.34;100.00;98889.75;4994304;28;20034;-68
2023/12/22 06:00:40;;;;;;;45.70;26.33;;;;;;;-0.38;100.00;98861.59;4994361;28;20465;-68
2023/12/22 06:03:06;;;;;;;45.70;26.47;;;;;;;-0.23;100.00;98867.47;4994355;28;20034;-68
2023/12/22 06:05:31;;;;;;;48.88;26.70;;;;;;;-0.15;100.00;98887.31;4994420;28;20034;-68
2023/12/22 06:07:57;;;;;;;43.58;26.27;;;;;;;-0.14;100.00;98887.38;4994422;28;20508;-68
2023/12/22 06:10:22;;;;;;;44.70;27.08;;;;;;;-0.23;100.00;98882.69;4994371;28;20034;-68
2023/12/22 06:12:48;;;;;;;52.13;26.15;;;;;;;-0.25;100.00;98891.00;4994070;28;20544;-67
2023/12/22 06:15:14;;;;;;;48.17;24.63;;;;;;;-0.77;100.00;98812.97;4994202;28;20042;-68
2023/12/22 06:17:39;;;;;;;47.57;25.93;;;;;;;-0.34;100.00;98891.38;4993873;28;20042;-68
2023/12/22 06:20:26;;;;;;;38.70;21.70;;;;;;;-0.17;100.00;98882.16;4994058;28;20492;-68
2023/12/22 06:22:51;;;;;;;41.65;20.83;;;;;;;-0.16;100.00;98894.06;4952742;29;20086;-68
2023/12/22 06:25:17;;;;;;;36.90;21.15;;;;;;;-0.17;100.00;98888.09;4952728;29;20043;-68
2023/12/22 06:27:42;;;;;;;44.90;21.73;;;;;;;-0.04;100.00;98884.56;4952862;29;20043;-68
2023/12/22 06:30:08;;;;;;;36.90;20.45;;;;;;;0.09;100.00;98896.22;4952670;29;20518;-68
2023/12/22 06:32:33;;;;;;;36.50;20.25;;;;;;;0.21;100.00;98888.38;4936604;29;20031;-68
2023/12/22 06:35:00;;;;;;;40.13;21.27;;;;;;;0.27;100.00;98886.16;4952690;29;20482;-67
2023/12/22 06:37:26;;;;;;;34.72;19.33;;;;;;;-0.14;100.00;98793.53;4952676;29;20498;-68
2023/12/22 06:39:51;;;;;;;30.65;19.48;;;;;;;0.20;100.00;98850.22;4952619;29;20039;-68
2023/12/22 06:42:17;;;;;;;32.05;18.33;;;;;;;0.06;100.00;98847.84;4952669;29;20391;-68
2023/12/22 06:44:43;;;;;;;51.65;24.10;;;;;;;-0.08;100.00;98844.59;4952474;29;20035;-67
2023/12/22 06:47:09;;;;;;;40.33;21.38;;;;;;;-0.30;100.00;98807.06;4951083;28;20043;-67
2023/12/22 06:49:54;;;;;;;42.80;24.38;;;;;;;-0.19;100.00;98800.94;4932914;29;20067;-67
2023/12/22 06:52:20;;;;;;;44.63;22.80;;;;;;;-0.17;100.00;98817.06;4933280;29;20044;-68
2023/12/22 06:54:45;;;;;;;40.33;20.80;;;;;;;-0.12;100.00;98819.88;4933133;29;20090;-67
2023/12/22 06:57:12;;;;;;;37.25;21.33;;;;;;;-0.23;100.00;98821.81;4933069;29;20039;-68
2023/12/22 06:59:38;;;;;;;55.42;30.27;;;;;;;-0.01;100.00;98833.97;4946663;28;20057;-67
2023/12/22 07:02:06;;;;;;;43.17;27.10;;;;;;;0.10;100.00;98826.03;4990922;28;20047;-68
2023/12/22 07:05:06;;;;;;;48.07;28.03;;;;;;;0.24;100.00;98847.94;4990866;28;20065;-68
2023/12/22 07:07:32;;;;;;;38.60;20.58;;;;;;;-0.54;100.00;98774.53;4990897;28;20031;-67
2023/12/22 07:09:57;;;;;;;38.88;21.60;;;;;;;-0.06;100.00;98853.16;4990761;28;20651;-68
2023/12/22 07:12:23;;;;;;;41.10;22.95;;;;;;;0.05;100.00;98852.84;4990768;28;20037;-68
2023/12/22 07:14:48;;;;;;;41.58;22.77;;;;;;;-0.05;100.00;98860.00;4990763;28;20253;-68
2023/12/22 07:17:14;;;;;;;53.20;31.33;;;;;;;-0.11;100.00;98851.16;4990651;28;20473;-68
2023/12/22 07:19:39;;;;;;;86.30;52.43;;;;;;;-0.05;100.00;98843.88;4990472;28;20030;-68
2023/12/22 07:22:05;;;;;;;48.83;28.52;;;;;;;-0.04;100.00;98816.06;4992579;28;20180;-68
2023/12/22 07:24:30;;;;;;;43.65;24.80;;;;;;;0.15;100.00;98834.78;4992664;28;20026;-68
2023/12/22 07:26:56;;;;;;;45.47;25.25;;;;;;;0.18;100.00;98844.22;4993105;28;20026;-68
2023/12/22 07:29:21;;;;;;;43.70;24.98;;;;;;;0.26;100.00;98846.38;4992805;28;20499;-68
2023/12/22 07:31:47;;;;;;;48.80;27.05;;;;;;;0.36;100.00;98836.66;4992801;28;20029;-68
2023/12/22 07:34:12;;;;;;;41.95;24.40;;;;;;;0.36;100.00;98829.91;4992672;28;20030;-68
2023/12/22 07:36:38;;;;;;;43.13;25.17;;;;;;;0.46;100.00;98837.22;4992515;28;20109;-68
2023/12/22 07:39:06;;;;;;;46.30;25.48;;;;;;;0.45;100.00;98835.47;4992832;28;20488;-68
2023/12/22 07:41:32;;;;;;;46.05;24.75;;;;;;;0.43;100.00;98834.50;4992502;28;20433;-68
2023/12/22 07:43:57;;;;;;;44.65;24.52;;;;;;;0.25;100.00;98834.47;4992476;28;20031;-68
2023/12/22 07:46:23;;;;;;;42.10;24.35;;;;;;;0.43;100.00;98849.75;4992561;28;20030;-68
2023/12/22 07:48:50;;;;;;;40.45;22.83;;;;;;;0.51;100.00;98851.81;4992377;28;20077;-68
2023/12/22 07:51:16;;;;;;;38.20;23.25;;;;;;;0.07;100.00;98763.31;4992148;28;20050;-68
2023/12/22 07:53:41;;;;;;;38.67;22.17;;;;;;;0.54;100.00;98826.59;4992460;28;20054;-68
2023/12/22 07:56:08;;;;;;;42.17;21.33;;;;;;;0.64;100.00;98844.03;5005913;28;20030;-68
2023/12/22 07:58:33;;;;;;;39.38;22.40;;;;;;;0.21;100.00;98770.78;4992013;28;20034;-68
2023/12/22 08:00:59;;;;;;;38.97;21.73;;;;;;;0.21;100.00;98773.31;4992322;28;20029;-68
2023/12/22 08:03:25;;;;;;;39.58;22.10;;;;;;;0.56;100.00;98830.94;4992319;28;20449;-68
2023/12/22 08:05:50;;;;;;;48.03;29.67;;;;;;;0.64;100.00;98831.31;4991918;28;20053;-68
2023/12/22 08:08:16;;;;;;;38.45;24.05;;;;;;;0.91;100.00;98862.31;4991997;28;20057;-68
2023/12/22 08:10:41;;;;;;;40.55;24.10;;;;;;;0.97;100.00;98849.00;4992025;28;20026;-68
2023/12/22 08:13:07;;;;;;;37.03;22.48;;;;;;;1.02;100.00;98850.09;4992540;28;20393;-68
2023/12/22 08:15:32;;;;;;;36.67;21.90;;;;;;;1.12;100.00;98857.41;4992121;28;20108;-68
2023/12/22 08:17:57;;;;;;;35.60;20.92;;;;;;;0.74;100.00;98771.69;4992376;28;20069;-68
2023/12/22 08:20:23;;;;;;;38.13;22.30;;;;;;;1.24;100.00;98851.16;4991750;28;20100;-68
2023/12/22 08:22:50;;;;;;;37.33;22.08;;;;;;;1.36;100.00;98859.38;4991896;28;20046;-68
2023/12/22 08:25:19;;;;;;;40.67;22.73;;;;;;;1.25;100.00;98855.44;4991842;28;20054;-68
2023/12/22 08:27:45;;;;;;;35.88;22.70;;;;;;;1.36;100.00;98871.19;4991374;28;20034;-68
2023/12/22 08:30:11;;;;;;;44.30;25.60;;;;;;;1.41;100.00;98872.31;4991640;28;20121;-68
2023/12/22 08:32:36;;;;;;;39.92;24.02;;;;;;;1.39;100.00;98862.03;4991953;28;20023;-68
2023/12/22 08:35:03;;;;;;;38.53;21.15;;;;;;;1.50;100.00;98862.56;4991342;28;20045;-68
2023/12/22 08:37:28;;;;;;;39.92;22.98;;;;;;;1.49;100.00;98863.34;4991785;28;20058;-68
2023/12/22 08:39:54;;;;;;;35.20;21.85;;;;;;;1.52;100.00;98855.88;4991431;28;20520;-68
2023/12/22 08:42:19;;;;;;;41.58;23.10;;;;;;;1.57;100.00;98863.69;4991754;28;20067;-68
2023/12/22 08:44:45;;;;;;;37.53;22.55;;;;;;;1.58;100.00;98855.28;5023018;28;20030;-68
2023/12/22 08:47:10;;;;;;;35.95;21.60;;;;;;;1.61;100.00;98852.88;4991366;28;20042;-69
2023/12/22 08:49:36;;;;;;;37.38;20.70;;;;;;;1.57;100.00;98846.78;4991406;28;20058;-68
2023/12/22 08:52:03;;;;;;;38.25;22.15;;;;;;;1.57;100.00;98856.97;4991509;28;20034;-68
2023/12/22 08:54:29;;;;;;;35.45;21.60;;;;;;;1.10;100.00;98776.78;4991554;28;20405;-68
2023/12/22 08:56:55;;;;;;;38.63;22.88;;;;;;;1.36;100.00;98811.06;4991322;28;20026;-68
2023/12/22 08:59:20;;;;;;;37.58;22.50;;;;;;;1.56;100.00;98857.75;4991447;28;20038;-68
2023/12/22 09:01:45;;;;;;;42.35;23.08;;;;;;;1.41;100.00;98831.63;4989935;28;20544;-68
2023/12/22 09:04:11;;;;;;;40.72;23.38;;;;;;;1.56;100.00;98855.22;4989089;28;20038;-68
2023/12/22 09:06:37;;;;;;;41.50;25.60;;;;;;;1.61;100.00;98861.38;4991305;28;20038;-68
2023/12/22 09:09:03;;;;;;;88.40;45.25;;;;;;;1.69;100.00;98854.09;4991412;28;20416;-68
2023/12/22 09:11:29;;;;;;;52.80;30.55;;;;;;;1.72;100.00;98836.44;4990590;28;20097;-68
2023/12/22 09:13:55;;;;;;;48.92;27.80;;;;;;;1.70;100.00;98827.00;4991443;28;20054;-68
2023/12/22 09:16:25;;;;;;;44.05;26.85;;;;;;;1.38;100.00;98767.91;4991122;28;20058;-68
2023/12/22 09:18:51;;;;;;;38.45;22.55;;;;;;;1.75;100.00;98828.94;4991289;28;20053;-68
2023/12/22 09:21:19;;;;;;;37.10;23.50;;;;;;;1.69;100.00;98815.94;4991086;28;20557;-68
2023/12/22 09:23:46;;;;;;;38.50;23.95;;;;;;;1.82;100.00;98831.75;4991270;28;20087;-68
2023/12/22 09:26:15;;;;;;;39.90;25.30;;;;;;;1.78;100.00;98824.00;4991112;28;20041;-68
2023/12/22 09:28:41;;;;;;;40.58;24.10;;;;;;;1.76;100.00;98820.50;4991135;28;20034;-68
2023/12/22 09:31:09;;;;;;;39.45;23.17;;;;;;;1.80;100.00;98811.34;4991376;28;20061;-67
2023/12/22 09:33:36;;;;;;;35.63;22.35;;;;;;;1.84;100.00;98805.59;4990980;28;20096;-68
2023/12/22 09:36:02;;;;;;;44.35;24.42;;;;;;;1.89;100.00;98808.34;4991098;28;20037;-68
2023/12/22 09:38:29;;;;;;;36.35;23.35;;;;;;;1.88;100.00;98801.50;4990934;28;20459;-68
2023/12/22 09:40:56;;;;;;;37.22;22.75;;;;;;;1.90;100.00;98793.13;4991067;28;20027;-68
2023/12/22 09:43:22;;;;;;;41.67;25.08;;;;;;;2.00;100.00;98779.13;4990894;28;20031;-67
2023/12/22 09:45:52;;;;;;;49.25;26.95;;;;;;;1.72;100.00;98728.72;4990753;28;20392;-68
2023/12/22 09:48:20;;;;;;;45.33;26.83;;;;;;;1.89;100.00;98748.13;4990737;28;20042;-68
2023/12/22 09:50:46;;;;;;;42.70;25.13;;;;;;;2.10;100.00;98782.97;4990881;28;20121;-68
2023/12/22 09:53:13;;;;;;;45.35;26.50;;;;;;;1.69;100.00;98704.00;4991102;28;20042;-68
2023/12/22 09:55:46;;;;;;;38.70;25.08;;;;;;;2.01;100.00;98778.34;4991009;28;20058;-68
2023/12/22 09:58:14;;;;;;;36.05;23.90;;;;;;;2.09;100.00;98773.56;4990727;28;20038;-68
2023/12/22 10:00:41;;;;;;;43.67;25.48;;;;;;;2.13;100.00;98765.28;4990835;28;20034;-68
2023/12/22 10:03:07;;;;;;;40.80;24.42;;;;;;;2.24;100.00;98770.81;4990836;28;20030;-68
2023/12/22 10:05:33;;;;;;;43.83;23.95;;;;;;;2.26;100.00;98764.13;4990847;28;20030;-68
2023/12/22 10:08:00;;;;;;;38.95;25.17;;;;;;;2.24;100.00;98766.63;4990846;28;20045;-68
2023/12/22 10:10:29;;;;;;;38.65;24.50;;;;;;;1.82;100.00;98694.38;4990625;28;20030;-68
2023/12/22 10:12:54;;;;;;;39.83;25.38;;;;;;;1.82;100.00;98684.19;4990568;28;20022;-68
2023/12/22 10:15:23;;;;;;;39.75;24.83;;;;;;;2.28;100.00;98738.72;4990884;28;20026;-68
2023/12/22 10:17:51;;;;;;;40.92;25.60;;;;;;;2.37;100.00;98739.13;4990641;28;20034;-68
2023/12/22 10:20:16;;;;;;;36.30;23.05;;;;;;;2.38;100.00;98729.00;4990518;28;20026;-68
2023/12/22 10:22:42;;;;;;;42.72;24.15;;;;;;;2.51;100.00;98732.03;4992864;28;20049;-68
2023/12/22 10:25:08;;;;;;;42.85;23.80;;;;;;;2.55;100.00;98727.09;4993999;28;20089;-68
2023/12/22 10:27:36;;;;;;;35.88;22.00;;;;;;;2.33;100.00;98682.09;4993763;28;20037;-68
2023/12/22 10:30:03;;;;;;;36.97;22.13;;;;;;;2.53;100.00;98720.22;4994003;28;20034;-68
2023/12/22 10:32:29;;;;;;;33.25;20.65;;;;;;;2.63;100.00;98729.09;4994414;28;20022;-68
2023/12/22 10:34:59;;;;;;;37.40;21.80;;;;;;;2.62;100.00;98733.34;4993915;28;20042;-68
2023/12/22 10:37:25;;;;;;;39.00;22.77;;;;;;;2.49;100.00;98719.22;4993699;28;20192;-67
2023/12/22 10:39:54;;;;;;;36.85;22.17;;;;;;;2.35;100.00;98677.06;4993950;28;20105;-68
2023/12/22 10:42:20;;;;;;;39.13;23.80;;;;;;;2.64;100.00;98716.44;4993659;28;20027;-68
2023/12/22 10:44:45;;;;;;;44.00;26.73;;;;;;;2.28;100.00;98658.13;4993787;28;20104;-68
2023/12/22 10:47:11;;;;;;;37.90;22.52;;;;;;;2.65;100.00;98717.31;4992084;28;20476;-68
2023/12/22 10:49:36;;;;;;;43.00;25.90;;;;;;;2.67;100.00;98718.25;4993790;28;20050;-68
2023/12/22 10:52:02;;;;;;;41.28;24.52;;;;;;;2.35;100.00;98662.63;4993533;28;20405;-68
2023/12/22 10:54:29;;;;;;;37.65;23.98;;;;;;;2.81;100.00;98741.72;4993676;28;20026;-68
2023/12/22 10:57:02;;;;;;;34.97;20.35;;;;;;;2.82;100.00;98746.03;4993658;28;20022;-67
2023/12/22 10:59:33;;;;;;;35.53;20.88;;;;;;;2.84;100.00;98758.00;4993703;28;20504;-68
2023/12/22 11:02:01;;;;;;;34.65;21.83;;;;;;;2.84;100.00;98755.47;4993382;28;20027;-68
2023/12/22 11:05:07;;;;;;;34.60;21.73;;;;;;;2.87;100.00;98760.69;4990793;28;20054;-67
2023/12/22 11:07:38;;;;;;;33.05;21.52;;;;;;;2.84;100.00;98744.38;4991029;28;20495;-68
2023/12/22 11:10:08;;;;;;;35.75;21.92;;;;;;;2.91;100.00;98754.88;4990912;28;20078;-69